createdAt,value
2023-02-18T00:02:23.673Z,13.38
2023-02-18T00:05:10.324Z,12.88
2023-02-18T00:07:56.515Z,12.50
2023-02-18T00:10:43.507Z,12.50
2023-02-18T00:13:29.305Z,12.43
2023-02-18T00:16:15.503Z,11.65
2023-02-18T00:19:04.680Z,11.75
2023-02-18T00:21:51.279Z,11.32
2023-02-18T00:24:37.456Z,11.98
2023-02-18T00:27:24.064Z,10.13
2023-02-18T00:30:11.202Z,10.48
2023-02-18T00:32:57.785Z,8.77
2023-02-18T00:35:43.807Z,8.18
2023-02-18T00:38:30.727Z,7.65
2023-02-18T00:41:17.082Z,8.00
2023-02-18T00:44:03.792Z,7.57
2023-02-18T00:46:50.014Z,7.10
2023-02-18T00:49:36.122Z,6.22
2023-02-18T00:52:23.392Z,5.90
2023-02-18T00:55:09.937Z,4.93
2023-02-18T00:57:56.244Z,4.90
2023-02-18T01:00:42.325Z,4.78
2023-02-18T01:03:28.675Z,4.20
2023-02-18T01:06:14.940Z,3.90
2023-02-18T01:09:01.798Z,3.83
2023-02-18T01:11:49.542Z,3.60
2023-02-18T01:14:39.985Z,3.40
2023-02-18T01:17:25.639Z,3.00
2023-02-18T01:20:13.180Z,2.85
2023-02-18T01:22:59.572Z,2.92
2023-02-18T01:25:46.762Z,2.83
2023-02-18T01:28:32.793Z,2.28
2023-02-18T01:31:19.799Z,2.67
2023-02-18T01:34:05.964Z,2.80
2023-02-18T01:36:52.096Z,2.72
2023-02-18T01:39:37.974Z,2.78
2023-02-18T01:42:29.512Z,2.25
2023-02-18T01:45:34.410Z,2.10
2023-02-18T01:48:40.405Z,2.63
2023-02-18T01:51:44.181Z,2.63
2023-02-18T01:54:40.274Z,2.45
2023-02-18T01:57:29.926Z,2.30
2023-02-18T02:00:20.676Z,2.42
2023-02-18T02:03:06.542Z,2.38
2023-02-18T02:05:52.630Z,2.40
2023-02-18T02:08:38.823Z,1.95
2023-02-18T02:12:00.976Z,1.90
2023-02-18T02:15:04.079Z,1.65
2023-02-18T02:18:15.126Z,2.10
2023-02-18T02:21:09.906Z,2.25
2023-02-18T02:24:13.833Z,2.53
2023-02-18T02:27:37.117Z,1.90
2023-02-18T02:30:23.237Z,2.03
2023-02-18T02:33:27.860Z,2.10
2023-02-18T02:36:14.830Z,2.05
2023-02-18T02:39:22.241Z,1.80
2023-02-18T02:42:26.362Z,1.75
2023-02-18T02:45:56.164Z,1.50
2023-02-18T02:49:06.150Z,1.98
2023-02-18T02:52:13.187Z,1.65
2023-02-18T02:54:59.870Z,1.63
2023-02-18T02:57:49.821Z,1.80
2023-02-18T03:01:18.377Z,1.60
2023-02-18T03:04:20.349Z,1.70
2023-02-18T03:07:39.867Z,1.45
2023-02-18T03:11:11.043Z,1.40
2023-02-18T03:14:06.625Z,1.63
2023-02-18T03:17:15.813Z,1.60
2023-02-18T03:20:21.314Z,1.85
2023-02-18T03:23:11.943Z,1.58
2023-02-18T03:26:00.984Z,1.50
2023-02-18T03:28:51.582Z,1.38
2023-02-18T03:31:42.399Z,1.38
2023-02-18T03:34:37.423Z,1.40
2023-02-18T03:37:24.192Z,1.20
2023-02-18T03:40:12.086Z,1.23
2023-02-18T03:43:00.315Z,1.30
2023-02-18T03:45:47.074Z,1.00
2023-02-18T03:48:35.553Z,1.55
2023-02-18T03:51:21.943Z,1.50
2023-02-18T03:54:12.232Z,1.17
2023-02-18T03:57:00.374Z,1.52
2023-02-18T03:59:46.592Z,1.58
2023-02-18T04:02:34.094Z,1.35
2023-02-18T04:05:20.030Z,1.30
2023-02-18T04:08:06.383Z,1.10
2023-02-18T04:10:53.266Z,1.02
2023-02-18T04:13:39.416Z,1.20
2023-02-18T04:16:26.026Z,1.20
2023-02-18T04:19:12.104Z,1.33
2023-02-18T04:21:58.925Z,1.50
2023-02-18T04:24:44.981Z,1.02
2023-02-18T04:27:31.503Z,1.10
2023-02-18T04:30:19.155Z,1.10
2023-02-18T04:33:05.154Z,1.23
2023-02-18T04:35:51.121Z,1.15
2023-02-18T04:38:37.853Z,1.27
2023-02-18T04:41:24.378Z,1.30
2023-02-18T04:44:10.431Z,1.38
2023-02-18T04:46:56.380Z,1.10
2023-02-18T04:49:43.032Z,0.93
2023-02-18T04:52:28.668Z,1.25
2023-02-18T04:55:15.124Z,1.13
2023-02-18T04:58:01.108Z,1.00
2023-02-18T05:00:47.470Z,1.05
2023-02-18T05:03:33.845Z,1.10
2023-02-18T05:06:20.338Z,1.00
2023-02-18T05:09:07.138Z,1.20
2023-02-18T05:11:53.106Z,1.20
2023-02-18T05:14:38.828Z,0.90
2023-02-18T05:17:25.145Z,1.10
2023-02-18T05:20:12.263Z,0.90
2023-02-18T05:22:58.350Z,0.90
2023-02-18T05:25:44.421Z,0.80
2023-02-18T05:28:31.165Z,1.10
2023-02-18T05:31:20.007Z,0.90
2023-02-18T05:34:06.087Z,1.17
2023-02-18T05:36:52.161Z,1.05
2023-02-18T05:39:38.394Z,1.10
2023-02-18T05:42:25.098Z,1.17
2023-02-18T05:45:11.607Z,1.20
2023-02-18T05:47:58.057Z,1.65
2023-02-18T05:50:44.163Z,1.30
2023-02-18T05:53:30.336Z,1.20
2023-02-18T05:56:16.121Z,1.55
2023-02-18T05:59:02.237Z,1.30
2023-02-18T06:01:48.976Z,1.35
2023-02-18T06:04:35.121Z,1.75
2023-02-18T06:07:21.463Z,1.60
2023-02-18T06:10:08.030Z,2.03
2023-02-18T06:12:54.756Z,1.73
2023-02-18T06:15:40.950Z,1.70
2023-02-18T06:18:27.170Z,1.60
2023-02-18T06:21:13.776Z,1.40
2023-02-18T06:24:00.661Z,1.25
2023-02-18T06:26:46.543Z,1.20
2023-02-18T06:29:33.151Z,1.15
2023-02-18T06:32:19.740Z,0.90
2023-02-18T06:35:05.896Z,1.00
2023-02-18T06:37:52.493Z,1.08
2023-02-18T06:40:38.342Z,0.80
2023-02-18T06:43:24.987Z,0.88
2023-02-18T06:46:11.569Z,1.00
2023-02-18T06:48:58.058Z,0.80
2023-02-18T06:51:47.316Z,0.68
2023-02-18T06:54:34.394Z,0.93
2023-02-18T06:57:21.193Z,1.00
2023-02-18T07:00:08.096Z,1.10
2023-02-18T07:02:54.880Z,1.00
2023-02-18T07:05:42.655Z,0.80
2023-02-18T07:08:31.497Z,1.20
2023-02-18T07:11:17.382Z,1.00
2023-02-18T07:14:03.517Z,1.00
2023-02-18T07:16:50.111Z,1.00
2023-02-18T07:19:36.649Z,1.00
2023-02-18T07:22:23.069Z,0.90
2023-02-18T07:25:10.735Z,1.15
2023-02-18T07:27:56.361Z,1.30
2023-02-18T07:30:42.776Z,1.15
2023-02-18T07:33:29.247Z,1.10
2023-02-18T07:36:15.291Z,0.93
2023-02-18T07:39:01.869Z,1.10
2023-02-18T07:41:49.138Z,1.30
2023-02-18T07:44:37.230Z,1.10
2023-02-18T07:47:24.148Z,1.10
2023-02-18T07:50:11.165Z,1.10
2023-02-18T07:52:57.688Z,1.13
2023-02-18T07:55:50.631Z,1.20
2023-02-18T07:58:38.688Z,1.20
2023-02-18T08:01:25.283Z,1.55
2023-02-18T08:04:11.646Z,1.30
2023-02-18T08:06:57.501Z,1.13
2023-02-18T08:09:43.776Z,1.00
2023-02-18T08:12:29.562Z,1.33
2023-02-18T08:15:15.899Z,1.08
2023-02-18T08:18:02.484Z,0.95
2023-02-18T08:20:48.641Z,1.05
2023-02-18T08:23:35.325Z,1.42
2023-02-18T08:26:22.235Z,0.80
2023-02-18T08:29:08.888Z,1.00
2023-02-18T08:31:58.088Z,0.93
2023-02-18T08:34:44.979Z,0.70
2023-02-18T08:37:31.371Z,1.77
2023-02-18T08:40:37.654Z,0.90
2023-02-18T08:43:24.401Z,1.10
2023-02-18T08:46:16.022Z,1.20
2023-02-18T08:49:04.379Z,0.80
2023-02-18T08:51:51.156Z,0.80
2023-02-18T08:54:37.918Z,0.80
2023-02-18T08:57:24.447Z,0.80
2023-02-18T09:00:13.983Z,0.60
2023-02-18T09:03:01.843Z,0.32
2023-02-18T09:05:47.649Z,0.30
2023-02-18T09:08:34.849Z,0.30
2023-02-18T09:11:21.266Z,0.40
2023-02-18T09:14:07.295Z,0.40
2023-02-18T09:16:53.441Z,0.55
2023-02-18T09:19:40.406Z,0.50
2023-02-18T09:22:52.351Z,0.38
2023-02-18T09:25:40.883Z,0.47
2023-02-18T09:28:26.852Z,0.40
2023-02-18T09:31:35.869Z,0.38
2023-02-18T09:34:52.848Z,0.43
2023-02-18T09:37:42.254Z,0.40
2023-02-18T09:40:32.869Z,0.30
2023-02-18T09:43:26.839Z,0.52
2023-02-18T09:46:55.450Z,0.50
2023-02-18T09:49:52.319Z,0.30
2023-02-18T09:52:40.071Z,0.50
2023-02-18T09:55:29.232Z,0.50
2023-02-18T09:58:21.156Z,0.60
2023-02-18T10:01:12.111Z,0.57
2023-02-18T10:04:24.723Z,0.65
2023-02-18T10:07:21.943Z,0.82
2023-02-18T10:10:26.648Z,0.57
2023-02-18T10:13:17.151Z,0.98
2023-02-18T10:16:05.135Z,0.70
2023-02-18T10:19:22.796Z,0.70
2023-02-18T10:22:14.694Z,0.70
2023-02-18T10:25:03.939Z,0.70
2023-02-18T10:27:53.143Z,0.68
2023-02-18T10:30:47.034Z,1.00
2023-02-18T10:33:40.847Z,0.90
2023-02-18T10:36:46.729Z,0.77
2023-02-18T10:39:57.471Z,0.70
2023-02-18T10:42:50.086Z,0.90
2023-02-18T10:46:01.921Z,0.57
2023-02-18T10:49:06.755Z,1.00
2023-02-18T10:51:58.119Z,0.77
2023-02-18T10:55:10.165Z,0.88
2023-02-18T10:57:57.900Z,0.80
2023-02-18T11:00:45.273Z,0.70
2023-02-18T11:04:13.812Z,0.80
2023-02-18T11:07:05.543Z,0.70
2023-02-18T11:10:34.798Z,0.63
2023-02-18T11:13:31.973Z,0.60
2023-02-18T11:16:23.255Z,0.47
2023-02-18T11:19:34.880Z,0.60
2023-02-18T11:22:28.946Z,0.60
2023-02-18T11:29:20.083Z,0.40
2023-02-18T11:32:13.279Z,0.50
2023-02-18T11:34:59.847Z,0.40
2023-02-18T11:37:45.991Z,0.40
2023-02-18T11:40:36.704Z,0.47
2023-02-18T11:43:23.044Z,0.50
2023-02-18T11:46:14.212Z,0.60
2023-02-18T11:49:23.178Z,0.40
2023-02-18T11:52:19.564Z,0.60
2023-02-18T11:55:22.719Z,0.50
2023-02-18T12:01:03.450Z,0.60
2023-02-18T12:03:56.012Z,0.60
2023-02-18T12:06:54.146Z,0.70
2023-02-18T12:09:49.245Z,0.52
2023-02-18T12:12:46.394Z,0.55
2023-02-18T12:15:54.669Z,0.50
2023-02-18T12:18:54.973Z,0.50
2023-02-18T12:21:57.558Z,0.50
2023-02-18T12:24:55.846Z,0.70
2023-02-18T12:28:11.908Z,0.60
2023-02-18T12:31:00.825Z,0.70
2023-02-18T12:34:10.462Z,0.60
2023-02-18T12:37:41.160Z,0.93
2023-02-18T12:40:52.970Z,0.60
2023-02-18T12:43:56.650Z,0.50
2023-02-18T12:49:59.475Z,0.68
2023-02-18T12:53:07.133Z,0.60
2023-02-18T12:56:30.115Z,0.60
2023-02-18T12:59:53.692Z,0.60
2023-02-18T13:03:10.259Z,0.50
2023-02-18T13:06:17.692Z,0.70
2023-02-18T13:09:15.297Z,0.70
2023-02-18T13:12:26.064Z,0.50
2023-02-18T13:15:40.434Z,0.40
2023-02-18T13:18:40.931Z,0.40
2023-02-18T13:21:28.170Z,0.50
2023-02-18T13:24:24.184Z,0.57
2023-02-18T13:27:23.827Z,0.80
2023-02-18T13:30:38.088Z,0.52
2023-02-18T13:33:55.997Z,0.73
2023-02-18T13:36:58.448Z,0.50
2023-02-18T13:39:58.152Z,0.60
2023-02-18T13:42:45.724Z,0.70
2023-02-18T13:45:33.408Z,0.80
2023-02-18T13:48:28.780Z,0.60
2023-02-18T13:51:29.978Z,0.50
2023-02-18T13:54:29.623Z,0.60
2023-02-18T13:57:29.386Z,0.50
2023-02-18T14:00:25.316Z,0.50
2023-02-18T14:03:38.258Z,0.82
2023-02-18T14:06:29.696Z,0.60
2023-02-18T14:09:16.364Z,0.77
2023-02-18T14:12:20.514Z,0.50
2023-02-18T14:15:18.944Z,0.60
2023-02-18T14:18:14.824Z,0.40
2023-02-18T14:21:14.675Z,0.70
2023-02-18T14:24:06.040Z,0.60
2023-02-18T14:26:53.448Z,0.80
2023-02-18T14:29:40.738Z,0.80
2023-02-18T14:32:26.867Z,0.80
2023-02-18T14:35:28.063Z,0.70
2023-02-18T14:38:22.568Z,0.70
2023-02-18T14:41:41.439Z,0.80
2023-02-18T14:44:47.943Z,1.10
2023-02-18T14:48:14.159Z,1.02
2023-02-18T14:51:01.811Z,0.90
2023-02-18T14:53:48.661Z,1.10
2023-02-18T14:57:00.393Z,0.80
2023-02-18T14:59:48.579Z,0.95
2023-02-18T15:02:38.785Z,0.90
2023-02-18T15:05:30.077Z,1.00
2023-02-18T15:08:22.838Z,1.00
2023-02-18T15:11:09.711Z,0.90
2023-02-18T15:13:56.854Z,1.10
2023-02-18T15:16:44.999Z,1.00
2023-02-18T15:19:41.181Z,1.30
2023-02-18T15:22:31.883Z,1.00
2023-02-18T15:25:17.982Z,1.00
2023-02-18T15:28:05.040Z,0.80
2023-02-18T15:30:51.922Z,0.90
2023-02-18T15:33:44.863Z,1.02
2023-02-18T15:36:33.219Z,1.17
2023-02-18T15:39:20.169Z,0.85
2023-02-18T15:42:19.473Z,1.20
2023-02-18T15:45:30.570Z,0.95
2023-02-18T15:48:41.812Z,1.00
2023-02-18T15:51:31.725Z,0.93
2023-02-18T15:54:21.287Z,1.15
2023-02-18T15:57:09.658Z,0.90
2023-02-18T16:00:04.483Z,0.90
2023-02-18T16:02:56.626Z,1.05
2023-02-18T16:05:43.058Z,0.88
2023-02-18T16:08:29.791Z,0.80
2023-02-18T16:11:15.849Z,0.90
2023-02-18T16:14:02.411Z,0.85
2023-02-18T16:17:15.054Z,0.90
2023-02-18T16:20:18.388Z,0.80
2023-02-18T16:23:12.319Z,0.90
2023-02-18T16:26:19.937Z,1.00
2023-02-18T16:29:36.435Z,0.93
2023-02-18T16:32:22.918Z,0.98
2023-02-18T16:35:10.192Z,1.10
2023-02-18T16:38:00.174Z,0.90
2023-02-18T16:40:45.900Z,0.95
2023-02-18T16:43:33.364Z,1.00
2023-02-18T16:46:22.759Z,0.77
2023-02-18T16:49:14.459Z,0.80
2023-02-18T16:52:08.153Z,0.85
2023-02-18T16:57:42.061Z,0.75
2023-02-18T17:00:28.278Z,0.50
2023-02-18T17:03:14.345Z,0.70
2023-02-18T17:06:00.697Z,0.70
2023-02-18T17:08:48.516Z,0.80
2023-02-18T17:11:36.399Z,1.08
2023-02-18T17:14:23.438Z,0.60
2023-02-18T17:17:14.192Z,0.80
2023-02-18T17:20:00.207Z,0.95
2023-02-18T17:22:46.249Z,1.00
2023-02-18T17:25:58.161Z,0.95
2023-02-18T17:28:44.560Z,0.60
2023-02-18T17:31:38.182Z,0.75
2023-02-18T17:34:34.506Z,1.02
2023-02-18T17:38:34.328Z,0.90
2023-02-18T17:41:20.213Z,1.05
2023-02-18T17:44:20.757Z,0.80
2023-02-18T17:47:06.894Z,0.88
2023-02-18T17:49:53.489Z,0.73
2023-02-18T17:52:39.852Z,0.80
2023-02-18T17:55:28.732Z,1.00
2023-02-18T17:58:15.941Z,1.13
2023-02-18T18:01:01.659Z,0.80
2023-02-18T18:03:47.715Z,0.77
2023-02-18T18:06:36.759Z,1.00
2023-02-18T18:09:23.777Z,0.75
2023-02-18T18:12:15.625Z,0.90
2023-02-18T18:15:03.743Z,0.93
2023-02-18T18:17:50.022Z,0.80
2023-02-18T18:20:36.604Z,0.65
2023-02-18T18:23:23.058Z,1.00
2023-02-18T18:26:09.952Z,0.80
2023-02-18T18:28:55.741Z,0.70
2023-02-18T18:31:43.492Z,0.63
2023-02-18T18:34:30.154Z,0.93
2023-02-18T18:37:16.961Z,0.60
2023-02-18T18:40:03.155Z,0.75
2023-02-18T18:42:49.858Z,0.90
2023-02-18T18:45:40.520Z,0.68
2023-02-18T18:48:26.519Z,0.70
2023-02-18T18:51:19.808Z,0.98
2023-02-18T18:54:06.172Z,1.00
2023-02-18T18:56:54.167Z,1.10
2023-02-18T18:59:40.045Z,1.00
2023-02-18T19:02:26.241Z,1.08
2023-02-18T19:05:21.627Z,0.70
2023-02-18T19:08:10.730Z,0.70
2023-02-18T19:10:58.112Z,1.13
2023-02-18T19:13:46.007Z,0.68
2023-02-18T19:16:39.975Z,0.70
2023-02-18T19:19:25.761Z,0.75
2023-02-18T19:22:11.951Z,0.73
2023-02-18T19:24:57.989Z,0.52
2023-02-18T19:27:46.440Z,0.60
2023-02-18T19:30:35.568Z,0.68
2023-02-18T19:33:22.471Z,0.43
2023-02-18T19:36:17.623Z,0.70
2023-02-18T19:39:04.500Z,0.65
2023-02-18T19:41:50.409Z,0.68
2023-02-18T19:44:37.077Z,0.70
2023-02-18T19:47:25.251Z,1.08
2023-02-18T19:50:14.785Z,0.57
2023-02-18T19:53:01.633Z,0.60
2023-02-18T19:55:57.418Z,0.60
2023-02-18T19:58:47.577Z,0.90
2023-02-18T20:01:34.203Z,0.63
2023-02-18T20:04:20.921Z,0.65
2023-02-18T20:07:07.122Z,0.80
2023-02-18T20:09:53.517Z,0.80
2023-02-18T20:12:39.738Z,0.68
2023-02-18T20:15:28.537Z,0.65
2023-02-18T20:18:15.134Z,0.80
2023-02-18T20:21:01.331Z,0.43
2023-02-18T20:23:48.724Z,0.70
2023-02-18T20:26:35.384Z,0.30
2023-02-18T20:29:22.185Z,0.65
2023-02-18T20:32:08.842Z,0.55
2023-02-18T20:34:57.048Z,0.60
2023-02-18T20:37:43.356Z,0.70
2023-02-18T20:40:29.584Z,0.50
2023-02-18T20:43:15.716Z,0.70
2023-02-18T20:46:07.666Z,0.65
2023-02-18T20:48:53.739Z,0.77
2023-02-18T20:51:40.491Z,0.73
2023-02-18T20:54:29.406Z,0.60
2023-02-18T20:57:16.899Z,0.52
2023-02-18T21:00:05.061Z,0.85
2023-02-18T21:02:51.711Z,0.70
2023-02-18T21:05:37.701Z,0.80
2023-02-18T21:08:24.839Z,0.68
2023-02-18T21:11:17.773Z,0.73
2023-02-18T21:14:05.406Z,0.70
2023-02-18T21:16:51.968Z,0.70
2023-02-18T21:19:38.842Z,0.55
2023-02-18T21:22:24.832Z,0.90
2023-02-18T21:25:13.133Z,0.70
2023-02-18T21:27:59.953Z,1.08
2023-02-18T21:30:46.387Z,0.77
2023-02-18T21:33:32.266Z,0.73
2023-02-18T21:36:19.552Z,0.70
2023-02-18T21:39:07.885Z,0.75
2023-02-18T21:41:53.645Z,0.88
2023-02-18T21:44:42.556Z,1.00
2023-02-18T21:47:29.285Z,1.10
2023-02-18T21:50:15.866Z,1.02
2023-02-18T21:53:04.459Z,0.80
2023-02-18T21:56:03.435Z,1.20
2023-02-18T21:58:50.536Z,0.80
2023-02-18T22:01:36.157Z,0.88
2023-02-18T22:04:25.630Z,1.00
2023-02-18T22:07:12.120Z,0.70
2023-02-18T22:09:57.937Z,0.82
2023-02-18T22:12:43.919Z,0.90
2023-02-18T22:15:30.054Z,0.90
2023-02-18T22:18:17.028Z,1.02
2023-02-18T22:21:09.668Z,0.88
2023-02-18T22:23:56.266Z,0.63
2023-02-18T22:26:44.329Z,0.80
2023-02-18T22:29:31.548Z,1.02
2023-02-18T22:32:17.715Z,1.00
2023-02-18T22:35:04.857Z,1.00
2023-02-18T22:37:50.879Z,0.93
2023-02-18T22:40:37.697Z,0.93
2023-02-18T22:43:24.345Z,0.80
2023-02-18T22:46:16.167Z,0.90
2023-02-18T22:49:02.740Z,0.80
2023-02-18T22:51:52.480Z,0.80
2023-02-18T22:54:39.034Z,0.57
2023-02-18T22:57:27.797Z,0.95
2023-02-18T23:00:15.743Z,0.75
2023-02-18T23:03:01.651Z,1.00
2023-02-18T23:05:47.980Z,0.70
2023-02-18T23:08:34.434Z,0.68
2023-02-18T23:11:21.437Z,0.93
2023-02-18T23:14:20.288Z,0.85
2023-02-18T23:17:15.807Z,0.80
2023-02-18T23:20:01.933Z,0.70
2023-02-18T23:22:48.012Z,1.02
2023-02-18T23:25:34.929Z,0.80
2023-02-18T23:28:21.229Z,0.70
2023-02-18T23:31:07.662Z,0.65
2023-02-18T23:33:56.565Z,0.90
2023-02-18T23:36:43.596Z,0.70
2023-02-18T23:39:29.807Z,1.00
2023-02-18T23:42:17.131Z,1.20
2023-02-18T23:45:03.236Z,0.88
2023-02-18T23:47:49.361Z,1.05
2023-02-18T23:50:36.054Z,0.90
2023-02-18T23:53:26.163Z,1.10
2023-02-18T23:56:23.716Z,0.82
2023-02-18T23:59:11.876Z,1.10
